createdAt,value
2018-08-30T00:00:15.043Z,19.20
2018-08-30T00:02:43.682Z,19.10
2018-08-30T00:05:12.120Z,19.00
2018-08-30T00:07:40.554Z,19.00
2018-08-30T00:10:08.956Z,19.00
2018-08-30T00:12:37.773Z,18.90
2018-08-30T00:15:06.407Z,18.90
2018-08-30T00:17:34.892Z,18.90
2018-08-30T00:20:03.544Z,18.90
2018-08-30T00:22:31.952Z,18.80
2018-08-30T00:25:00.321Z,18.80
2018-08-30T00:27:28.889Z,18.80
2018-08-30T00:29:57.996Z,18.80
2018-08-30T00:32:26.404Z,18.80
2018-08-30T00:34:54.812Z,18.80
2018-08-30T00:37:23.273Z,18.80
2018-08-30T00:39:51.708Z,18.80
2018-08-30T00:42:20.190Z,18.80
2018-08-30T00:44:48.547Z,18.90
2018-08-30T00:47:21.760Z,18.90
2018-08-30T00:49:51.231Z,18.90
2018-08-30T00:52:20.056Z,19.00
2018-08-30T00:54:48.501Z,18.90
2018-08-30T00:57:17.667Z,18.80
2018-08-30T00:59:46.284Z,18.80
2018-08-30T01:02:14.708Z,18.70
2018-08-30T01:04:43.285Z,18.60
2018-08-30T01:07:11.931Z,18.50
2018-08-30T01:09:40.327Z,18.50
2018-08-30T01:12:08.765Z,18.40
2018-08-30T01:14:37.093Z,18.40
2018-08-30T01:17:05.643Z,18.40
2018-08-30T01:19:34.159Z,18.30
2018-08-30T01:22:02.701Z,18.40
2018-08-30T01:24:31.108Z,18.40
2018-08-30T01:26:59.432Z,18.40
2018-08-30T01:29:27.852Z,18.40
2018-08-30T01:31:56.263Z,18.40
2018-08-30T01:34:24.641Z,18.30
2018-08-30T01:36:53.034Z,18.20
2018-08-30T01:39:21.371Z,18.10
2018-08-30T01:41:49.747Z,18.10
2018-08-30T01:44:18.175Z,18.00
2018-08-30T01:46:46.545Z,17.90
2018-08-30T01:49:15.018Z,17.80
2018-08-30T01:51:43.441Z,17.80
2018-08-30T01:54:11.982Z,17.80
2018-08-30T01:56:40.363Z,17.90
2018-08-30T01:59:08.747Z,17.90
2018-08-30T02:01:37.070Z,17.90
2018-08-30T02:04:05.483Z,17.90
2018-08-30T02:06:33.836Z,17.90
2018-08-30T02:09:02.227Z,18.00
2018-08-30T02:11:30.552Z,18.00
2018-08-30T02:13:58.964Z,18.00
2018-08-30T02:16:27.323Z,18.00
2018-08-30T02:18:55.748Z,18.00
2018-08-30T02:21:24.125Z,18.10
2018-08-30T02:23:52.503Z,18.10
2018-08-30T02:26:20.889Z,18.10
2018-08-30T02:28:49.283Z,18.10
2018-08-30T02:31:17.639Z,18.10
2018-08-30T02:33:46.086Z,18.10
2018-08-30T02:36:14.476Z,18.10
2018-08-30T02:38:42.895Z,18.10
2018-08-30T02:41:11.321Z,18.10
2018-08-30T02:43:39.711Z,18.10
2018-08-30T02:46:08.131Z,18.10
2018-08-30T02:48:36.542Z,18.10
2018-08-30T02:51:04.931Z,18.10
2018-08-30T02:53:33.305Z,18.10
2018-08-30T02:56:01.780Z,18.10
2018-08-30T02:58:30.143Z,18.10
2018-08-30T03:00:58.552Z,18.10
2018-08-30T03:03:26.922Z,18.10
2018-08-30T03:05:55.291Z,18.10
2018-08-30T03:08:23.769Z,18.10
2018-08-30T03:10:52.751Z,18.10
2018-08-30T03:13:21.100Z,18.00
2018-08-30T03:15:49.741Z,18.00
2018-08-30T03:18:18.357Z,18.00
2018-08-30T03:20:46.736Z,18.00
2018-08-30T03:23:15.171Z,18.10
2018-08-30T03:25:43.630Z,18.10
2018-08-30T03:28:12.213Z,18.10
2018-08-30T03:30:40.607Z,18.10
2018-08-30T03:33:08.966Z,18.10
2018-08-30T03:35:37.327Z,18.10
2018-08-30T03:38:05.961Z,18.10
2018-08-30T03:40:34.424Z,18.00
2018-08-30T03:43:02.748Z,18.00
2018-08-30T03:45:31.158Z,18.00
2018-08-30T03:47:59.501Z,18.00
2018-08-30T03:50:27.876Z,18.00
2018-08-30T03:52:56.254Z,17.90
2018-08-30T03:55:24.590Z,18.00
2018-08-30T03:57:52.960Z,17.90
2018-08-30T04:00:21.381Z,17.90
2018-08-30T04:02:49.726Z,18.00
2018-08-30T04:05:18.121Z,18.00
2018-08-30T04:07:46.504Z,18.00
2018-08-30T04:10:15.065Z,18.10
2018-08-30T04:12:43.696Z,18.00
2018-08-30T04:15:12.116Z,18.10
2018-08-30T04:17:40.577Z,18.00
2018-08-30T04:20:09.043Z,18.10
2018-08-30T04:22:37.429Z,18.10
2018-08-30T04:25:05.910Z,18.00
2018-08-30T04:27:34.373Z,18.10
2018-08-30T04:30:02.761Z,18.00
2018-08-30T04:32:31.100Z,17.90
2018-08-30T04:34:59.452Z,17.80
2018-08-30T04:37:27.844Z,17.80
2018-08-30T04:39:56.216Z,17.80
2018-08-30T04:42:24.638Z,17.70
2018-08-30T04:44:53.006Z,17.70
2018-08-30T04:47:21.441Z,17.70
2018-08-30T04:49:49.842Z,17.70
2018-08-30T04:52:18.215Z,17.70
2018-08-30T04:54:46.634Z,17.70
2018-08-30T04:57:15.168Z,17.70
2018-08-30T04:59:44.093Z,17.60
2018-08-30T05:02:12.798Z,17.60
2018-08-30T05:04:41.528Z,17.60
2018-08-30T05:07:09.972Z,17.50
2018-08-30T05:09:38.331Z,17.40
2018-08-30T05:12:06.762Z,17.50
2018-08-30T05:14:35.104Z,17.50
2018-08-30T05:17:03.562Z,17.50
2018-08-30T05:19:32.020Z,17.60
2018-08-30T05:22:00.392Z,17.50
2018-08-30T05:24:29.025Z,17.60
2018-08-30T05:26:57.382Z,17.60
2018-08-30T05:29:25.784Z,17.60
2018-08-30T05:31:54.300Z,17.60
2018-08-30T05:34:22.722Z,17.60
2018-08-30T05:36:51.077Z,17.60
2018-08-30T05:39:19.500Z,17.60
2018-08-30T05:41:47.972Z,17.60
2018-08-30T05:44:16.469Z,17.60
2018-08-30T05:46:45.860Z,17.60
2018-08-30T05:49:14.397Z,17.60
2018-08-30T05:51:42.833Z,17.60
2018-08-30T05:54:11.477Z,17.60
2018-08-30T05:56:41.411Z,17.60
2018-08-30T05:59:09.884Z,17.60
2018-08-30T06:01:38.276Z,17.70
2018-08-30T06:04:06.788Z,17.70
2018-08-30T06:06:35.235Z,17.70
2018-08-30T06:09:04.660Z,17.70
2018-08-30T06:11:33.060Z,17.70
2018-08-30T06:14:01.458Z,17.80
2018-08-30T06:16:30.000Z,17.80
2018-08-30T06:18:58.348Z,17.80
2018-08-30T06:21:26.762Z,17.80
2018-08-30T06:23:55.184Z,17.70
2018-08-30T06:26:23.668Z,17.80
2018-08-30T06:28:52.252Z,17.80
2018-08-30T06:31:20.733Z,17.80
2018-08-30T06:33:49.187Z,17.80
2018-08-30T06:36:17.803Z,17.80
2018-08-30T06:38:46.279Z,17.80
2018-08-30T06:41:14.862Z,17.80
2018-08-30T06:43:43.840Z,17.80
2018-08-30T06:46:12.261Z,17.90
2018-08-30T06:48:41.139Z,17.90
2018-08-30T06:51:09.601Z,18.00
2018-08-30T06:53:37.979Z,18.00
2018-08-30T06:56:06.435Z,18.10
2018-08-30T06:58:34.912Z,18.20
2018-08-30T07:01:03.277Z,18.30
2018-08-30T07:03:31.701Z,18.20
2018-08-30T07:06:00.106Z,18.20
2018-08-30T07:08:30.223Z,18.30
2018-08-30T07:10:58.689Z,18.30
2018-08-30T07:13:27.132Z,18.30
2018-08-30T07:15:55.529Z,18.30
2018-08-30T07:18:23.935Z,18.40
2018-08-30T07:20:52.485Z,18.50
2018-08-30T07:23:20.861Z,18.50
2018-08-30T07:25:49.353Z,18.50
2018-08-30T07:28:17.780Z,18.60
2018-08-30T07:30:46.529Z,18.70
2018-08-30T07:33:14.941Z,18.80
2018-08-30T07:35:43.483Z,18.80
2018-08-30T07:38:11.981Z,18.80
2018-08-30T07:40:40.817Z,18.80
2018-08-30T07:43:09.236Z,18.90
2018-08-30T07:45:37.601Z,18.90
2018-08-30T07:48:06.108Z,18.90
2018-08-30T07:50:36.959Z,19.00
2018-08-30T07:53:05.508Z,19.10
2018-08-30T07:55:33.888Z,19.00
2018-08-30T07:58:02.303Z,19.00
2018-08-30T08:00:30.669Z,18.90
2018-08-30T08:03:04.210Z,18.90
2018-08-30T08:05:33.900Z,18.90
2018-08-30T08:08:02.369Z,18.90
2018-08-30T08:10:30.831Z,19.10
2018-08-30T08:12:59.258Z,19.70
2018-08-30T08:15:27.700Z,20.50
2018-08-30T08:17:56.152Z,20.60
2018-08-30T08:20:24.573Z,20.60
2018-08-30T08:22:53.042Z,20.60
2018-08-30T08:25:21.803Z,20.60
2018-08-30T08:27:50.182Z,20.70
2018-08-30T08:30:18.916Z,20.60
2018-08-30T08:32:47.285Z,20.10
2018-08-30T08:35:15.759Z,20.00
2018-08-30T08:37:44.251Z,19.90
2018-08-30T08:40:12.717Z,19.90
2018-08-30T08:42:41.241Z,20.10
2018-08-30T08:45:09.693Z,20.10
2018-08-30T08:47:38.291Z,20.20
2018-08-30T08:50:06.713Z,20.30
2018-08-30T08:52:35.102Z,20.40
2018-08-30T08:55:03.553Z,20.50
2018-08-30T08:57:33.744Z,20.60
2018-08-30T09:00:02.894Z,20.70
2018-08-30T09:02:31.336Z,20.70
2018-08-30T09:04:59.713Z,20.70
2018-08-30T09:07:28.191Z,20.50
2018-08-30T09:09:56.643Z,20.50
2018-08-30T09:12:25.208Z,20.50
2018-08-30T09:14:54.925Z,20.50
2018-08-30T09:17:23.408Z,20.50
2018-08-30T09:19:51.797Z,20.40
2018-08-30T09:22:20.281Z,20.30
2018-08-30T09:24:48.712Z,20.00
2018-08-30T09:27:17.285Z,19.90
2018-08-30T09:29:45.986Z,19.90
2018-08-30T09:32:14.448Z,19.90
2018-08-30T09:34:42.962Z,20.00
2018-08-30T09:37:14.065Z,20.10
2018-08-30T09:39:43.212Z,20.40
2018-08-30T09:42:11.720Z,20.40
2018-08-30T09:44:40.201Z,20.60
2018-08-30T09:47:09.710Z,20.50
2018-08-30T09:49:38.249Z,20.50
2018-08-30T09:52:06.606Z,20.50
2018-08-30T09:54:35.078Z,20.50
2018-08-30T09:57:03.616Z,20.40
2018-08-30T09:59:31.960Z,20.40
2018-08-30T10:02:06.508Z,20.50
2018-08-30T10:04:35.082Z,20.60
2018-08-30T10:07:03.863Z,20.70
2018-08-30T10:09:32.328Z,20.90
2018-08-30T10:12:00.764Z,21.10
2018-08-30T10:14:29.324Z,21.00
2018-08-30T10:16:57.792Z,21.10
2018-08-30T10:19:26.325Z,20.90
2018-08-30T10:21:54.819Z,20.70
2018-08-30T10:24:23.280Z,20.60
2018-08-30T10:26:51.827Z,20.50
2018-08-30T10:29:20.243Z,20.40
2018-08-30T10:31:48.641Z,20.40
2018-08-30T10:34:17.080Z,20.40
2018-08-30T10:36:45.524Z,20.30
2018-08-30T10:39:14.004Z,20.30
2018-08-30T10:41:42.566Z,20.40
2018-08-30T10:44:11.188Z,20.60
2018-08-30T10:46:39.665Z,20.70
2018-08-30T10:49:08.264Z,20.80
2018-08-30T10:51:37.062Z,20.90
2018-08-30T10:54:05.609Z,20.90
2018-08-30T10:56:34.091Z,21.00
2018-08-30T10:59:02.660Z,21.00
2018-08-30T11:01:31.703Z,20.90
2018-08-30T11:04:00.234Z,21.00
2018-08-30T11:06:28.849Z,20.90
2018-08-30T11:08:57.273Z,20.90
2018-08-30T11:11:26.130Z,20.90
2018-08-30T11:13:54.748Z,20.90
2018-08-30T11:16:23.450Z,21.00
2018-08-30T11:18:51.941Z,21.00
2018-08-30T11:21:21.613Z,21.00
2018-08-30T11:23:50.186Z,21.00
2018-08-30T11:26:18.760Z,20.80
2018-08-30T11:28:47.409Z,20.70
2018-08-30T11:31:16.117Z,20.60
2018-08-30T11:33:44.825Z,20.70
2018-08-30T11:36:13.650Z,21.00
2018-08-30T11:38:42.295Z,21.20
2018-08-30T11:41:11.014Z,21.20
2018-08-30T11:43:39.447Z,21.40
2018-08-30T11:46:08.009Z,21.50
2018-08-30T11:48:36.585Z,21.50
2018-08-30T11:51:05.234Z,21.50
2018-08-30T11:53:33.731Z,21.50
2018-08-30T11:56:02.299Z,21.60
2018-08-30T11:58:30.677Z,21.60
2018-08-30T12:00:59.211Z,21.90
2018-08-30T12:03:27.660Z,22.10
2018-08-30T12:05:56.567Z,22.20
2018-08-30T12:08:25.067Z,22.20
2018-08-30T12:10:53.562Z,22.20
2018-08-30T12:13:22.166Z,22.30
2018-08-30T12:15:50.624Z,22.20
2018-08-30T12:18:19.140Z,22.20
2018-08-30T12:20:47.800Z,22.10
2018-08-30T12:23:16.143Z,22.00
2018-08-30T12:25:44.779Z,22.00
2018-08-30T12:28:13.288Z,21.80
2018-08-30T12:30:41.799Z,21.80
2018-08-30T12:33:10.313Z,21.70
2018-08-30T12:35:38.804Z,21.60
2018-08-30T12:38:07.259Z,21.50
2018-08-30T12:40:35.829Z,21.40
2018-08-30T12:43:04.339Z,21.40
2018-08-30T12:45:32.798Z,21.50
2018-08-30T12:48:01.318Z,21.50
2018-08-30T12:50:30.158Z,21.50
2018-08-30T12:52:58.562Z,21.70
2018-08-30T12:55:27.019Z,21.80
2018-08-30T12:57:55.436Z,21.90
2018-08-30T13:00:23.989Z,22.20
2018-08-30T13:02:53.526Z,22.20
2018-08-30T13:05:22.032Z,22.10
2018-08-30T13:07:50.349Z,22.00
2018-08-30T13:10:19.084Z,22.00
2018-08-30T13:12:47.179Z,21.90
2018-08-30T13:15:15.991Z,21.70
2018-08-30T13:17:44.207Z,21.60
2018-08-30T13:20:13.004Z,21.50
2018-08-30T13:22:41.567Z,21.50
2018-08-30T13:25:10.083Z,21.50
2018-08-30T13:27:39.246Z,21.40
2018-08-30T13:30:08.237Z,21.30
2018-08-30T13:32:36.797Z,21.30
2018-08-30T13:35:05.521Z,21.30
2018-08-30T13:37:34.133Z,21.30
2018-08-30T13:40:02.526Z,21.40
2018-08-30T13:42:31.474Z,21.70
2018-08-30T13:44:59.961Z,21.90
2018-08-30T13:47:28.169Z,21.90
2018-08-30T13:49:56.481Z,22.00
2018-08-30T13:52:25.120Z,21.90
2018-08-30T13:54:53.629Z,21.80
2018-08-30T13:57:22.571Z,21.80
2018-08-30T13:59:51.055Z,21.80
2018-08-30T14:02:19.373Z,21.70
2018-08-30T14:04:47.831Z,21.60
2018-08-30T14:07:16.489Z,21.70
2018-08-30T14:09:45.145Z,21.70
2018-08-30T14:12:14.023Z,21.60
2018-08-30T14:14:42.302Z,21.60
2018-08-30T14:17:10.403Z,21.50
2018-08-30T14:19:38.752Z,21.60
2018-08-30T14:22:07.154Z,21.70
2018-08-30T14:24:35.565Z,21.80
2018-08-30T14:27:05.975Z,21.90
2018-08-30T14:29:34.458Z,21.90
2018-08-30T14:32:02.841Z,21.90
2018-08-30T14:34:31.175Z,21.90
2018-08-30T14:36:59.617Z,21.80
2018-08-30T14:39:28.008Z,21.70
2018-08-30T14:41:56.509Z,21.80
2018-08-30T14:44:24.795Z,21.80
2018-08-30T14:46:53.278Z,21.80
2018-08-30T14:49:23.696Z,21.70
2018-08-30T14:51:52.172Z,21.70
2018-08-30T14:54:20.587Z,21.80
2018-08-30T14:56:49.716Z,21.90
2018-08-30T14:59:18.359Z,22.00
2018-08-30T15:01:46.735Z,22.00
2018-08-30T15:04:15.248Z,21.90
2018-08-30T15:06:43.958Z,21.80
2018-08-30T15:09:12.615Z,21.80
2018-08-30T15:11:40.965Z,21.70
2018-08-30T15:14:09.435Z,21.60
2018-08-30T15:16:37.824Z,21.60
2018-08-30T15:19:06.269Z,21.70
2018-08-30T15:21:34.661Z,21.70
2018-08-30T15:24:03.141Z,21.70
2018-08-30T15:26:31.754Z,21.70
2018-08-30T15:29:00.017Z,21.70
2018-08-30T15:31:28.388Z,21.60
2018-08-30T15:33:56.958Z,21.50
2018-08-30T15:36:25.268Z,21.50
2018-08-30T15:38:53.736Z,21.60
2018-08-30T15:41:22.185Z,21.60
2018-08-30T15:43:50.653Z,21.70
2018-08-30T15:46:19.176Z,21.60
2018-08-30T15:48:47.759Z,21.50
2018-08-30T15:51:16.272Z,21.30
2018-08-30T15:53:44.976Z,21.30
2018-08-30T15:56:13.720Z,21.20
2018-08-30T15:58:42.308Z,21.20
2018-08-30T16:01:10.897Z,21.20
2018-08-30T16:03:39.420Z,21.30
2018-08-30T16:06:07.895Z,21.30
2018-08-30T16:08:36.720Z,21.30
2018-08-30T16:11:05.229Z,21.30
2018-08-30T16:13:33.613Z,21.20
2018-08-30T16:16:02.093Z,21.10
2018-08-30T16:18:31.032Z,21.10
2018-08-30T16:20:59.557Z,21.10
2018-08-30T16:23:34.551Z,21.00
2018-08-30T16:26:03.853Z,20.90
2018-08-30T16:28:33.871Z,20.90
2018-08-30T16:31:03.058Z,20.90
2018-08-30T16:33:32.423Z,20.90
2018-08-30T16:36:01.327Z,20.90
2018-08-30T16:38:29.922Z,20.90
2018-08-30T16:40:58.557Z,20.90
2018-08-30T16:43:27.340Z,20.90
2018-08-30T16:45:55.776Z,20.80
2018-08-30T16:48:24.792Z,20.90
2018-08-30T16:50:53.988Z,20.80
2018-08-30T16:53:23.645Z,20.80
2018-08-30T16:55:52.268Z,20.80
2018-08-30T16:58:20.969Z,20.70
2018-08-30T17:00:49.522Z,20.70
2018-08-30T17:03:17.924Z,20.60
2018-08-30T17:05:46.534Z,20.50
2018-08-30T17:08:15.336Z,20.50
2018-08-30T17:10:44.278Z,20.50
2018-08-30T17:13:12.776Z,20.40
2018-08-30T17:15:41.435Z,20.40
2018-08-30T17:18:09.947Z,20.40
2018-08-30T17:20:43.380Z,20.40
2018-08-30T17:23:12.362Z,20.40
2018-08-30T17:25:42.430Z,20.40
2018-08-30T17:28:11.248Z,20.40
2018-08-30T17:30:40.615Z,20.30
2018-08-30T17:33:09.607Z,20.30
2018-08-30T17:35:38.148Z,20.20
2018-08-30T17:38:06.743Z,20.20
2018-08-30T17:40:35.447Z,20.10
2018-08-30T17:43:03.860Z,20.10
2018-08-30T17:45:32.405Z,20.00
2018-08-30T17:48:01.097Z,19.90
2018-08-30T17:50:29.717Z,19.90
2018-08-30T17:52:58.294Z,19.90
2018-08-30T17:55:26.794Z,19.80
2018-08-30T17:57:55.401Z,19.80
2018-08-30T18:00:24.155Z,19.80
2018-08-30T18:02:52.711Z,19.70
2018-08-30T18:05:21.129Z,19.70
2018-08-30T18:07:49.470Z,19.70
2018-08-30T18:10:18.269Z,19.60
2018-08-30T18:12:46.826Z,19.50
2018-08-30T18:15:16.280Z,19.50
2018-08-30T18:17:45.763Z,19.40
2018-08-30T18:20:14.271Z,19.30
2018-08-30T18:22:42.999Z,19.30
2018-08-30T18:25:11.783Z,19.30
2018-08-30T18:27:40.746Z,19.30
2018-08-30T18:30:10.450Z,19.20
2018-08-30T18:32:39.411Z,19.10
2018-08-30T18:35:09.170Z,19.20
2018-08-30T18:37:38.430Z,19.10
2018-08-30T18:40:07.924Z,19.00
2018-08-30T18:42:36.348Z,19.00
2018-08-30T18:45:05.051Z,18.90
2018-08-30T18:47:33.558Z,18.80
2018-08-30T18:50:02.059Z,18.80
2018-08-30T18:52:30.721Z,18.70
2018-08-30T18:54:59.342Z,18.60
2018-08-30T18:57:27.812Z,18.60
2018-08-30T18:59:56.285Z,18.50
2018-08-30T19:02:24.913Z,18.40
2018-08-30T19:04:53.452Z,18.40
2018-08-30T19:07:22.376Z,18.30
2018-08-30T19:09:51.003Z,18.30
2018-08-30T19:12:19.599Z,18.20
2018-08-30T19:14:48.215Z,18.20
2018-08-30T19:17:22.026Z,18.10
2018-08-30T19:19:50.516Z,18.00
2018-08-30T19:22:19.092Z,18.00
2018-08-30T19:24:52.966Z,17.90
2018-08-30T19:27:21.751Z,17.90
2018-08-30T19:29:55.733Z,17.90
2018-08-30T19:32:24.306Z,17.80
2018-08-30T19:34:52.863Z,17.80
2018-08-30T19:37:21.313Z,17.70
2018-08-30T19:39:49.776Z,17.70
2018-08-30T19:42:18.503Z,17.60
2018-08-30T19:44:47.189Z,17.60
2018-08-30T19:47:15.816Z,17.50
2018-08-30T19:49:44.537Z,17.40
2018-08-30T19:52:13.369Z,17.30
2018-08-30T19:54:42.924Z,17.20
2018-08-30T19:57:12.860Z,17.10
2018-08-30T19:59:41.616Z,17.10
2018-08-30T20:02:10.251Z,17.10
2018-08-30T20:04:38.620Z,17.00
2018-08-30T20:07:07.100Z,16.90
2018-08-30T20:09:35.765Z,16.80
2018-08-30T20:12:04.198Z,16.80
2018-08-30T20:14:32.754Z,16.80
2018-08-30T20:17:01.325Z,16.70
2018-08-30T20:19:30.005Z,16.70
2018-08-30T20:21:58.526Z,16.80
2018-08-30T20:24:27.112Z,16.70
2018-08-30T20:26:56.225Z,16.70
2018-08-30T20:29:24.637Z,16.60
2018-08-30T20:31:53.497Z,16.60
2018-08-30T20:34:22.073Z,16.50
2018-08-30T20:36:50.523Z,16.50
2018-08-30T20:39:19.395Z,16.40
2018-08-30T20:41:48.175Z,16.40
2018-08-30T20:44:17.305Z,16.40
2018-08-30T20:46:46.259Z,16.40
2018-08-30T20:49:15.297Z,16.30
2018-08-30T20:51:44.714Z,16.30
2018-08-30T20:54:13.496Z,16.20
2018-08-30T20:56:42.407Z,16.10
2018-08-30T20:59:11.274Z,16.00
2018-08-30T21:01:40.091Z,16.00
2018-08-30T21:04:09.359Z,15.90
2018-08-30T21:06:38.014Z,15.80
2018-08-30T21:09:09.176Z,15.80
2018-08-30T21:11:38.375Z,15.70
2018-08-30T21:14:06.806Z,15.70
2018-08-30T21:16:36.274Z,15.70
2018-08-30T21:19:05.107Z,15.80
2018-08-30T21:21:34.764Z,15.70
2018-08-30T21:24:03.451Z,15.80
2018-08-30T21:26:35.910Z,15.80
2018-08-30T21:29:04.916Z,15.70
2018-08-30T21:31:34.092Z,15.60
2018-08-30T21:34:02.586Z,15.60
2018-08-30T21:36:30.995Z,15.70
2018-08-30T21:39:00.706Z,15.70
2018-08-30T21:41:29.088Z,15.80
2018-08-30T21:43:57.586Z,15.80
2018-08-30T21:46:27.522Z,15.80
2018-08-30T21:48:56.666Z,15.80
2018-08-30T21:51:25.800Z,15.70
2018-08-30T21:53:54.908Z,15.60
2018-08-30T21:56:23.485Z,15.60
2018-08-30T21:58:52.017Z,15.60
2018-08-30T22:01:20.572Z,15.60
2018-08-30T22:03:48.985Z,15.40
2018-08-30T22:06:17.574Z,15.40
2018-08-30T22:08:46.419Z,15.30
2018-08-30T22:11:14.882Z,15.30
2018-08-30T22:13:43.454Z,15.20
2018-08-30T22:16:12.004Z,15.20
2018-08-30T22:18:42.911Z,15.20
2018-08-30T22:21:11.544Z,15.30
2018-08-30T22:23:40.020Z,15.30
2018-08-30T22:26:10.522Z,15.30
2018-08-30T22:28:38.998Z,15.30
2018-08-30T22:31:07.732Z,15.20
2018-08-30T22:33:36.899Z,15.10
2018-08-30T22:36:05.348Z,15.00
2018-08-30T22:38:33.768Z,15.10
2018-08-30T22:41:02.181Z,15.00
2018-08-30T22:43:30.616Z,15.00
2018-08-30T22:45:59.076Z,15.00
2018-08-30T22:48:27.499Z,15.00
2018-08-30T22:50:55.872Z,15.00
2018-08-30T22:53:24.494Z,14.90
2018-08-30T22:55:52.879Z,14.90
2018-08-30T22:58:21.377Z,14.80
2018-08-30T23:00:49.799Z,14.70
2018-08-30T23:03:18.244Z,14.60
2018-08-30T23:05:46.832Z,14.60
2018-08-30T23:08:15.571Z,14.60
2018-08-30T23:10:44.244Z,14.60
2018-08-30T23:13:12.771Z,14.60
2018-08-30T23:15:41.313Z,14.60
2018-08-30T23:18:09.751Z,14.60
2018-08-30T23:20:38.176Z,14.70
2018-08-30T23:23:06.608Z,14.80
2018-08-30T23:25:35.084Z,14.80
2018-08-30T23:28:03.490Z,14.90
2018-08-30T23:30:31.946Z,14.90
2018-08-30T23:33:00.349Z,14.90
2018-08-30T23:35:28.833Z,14.90
2018-08-30T23:37:57.284Z,14.80
2018-08-30T23:40:25.700Z,14.80
2018-08-30T23:42:54.930Z,14.80
2018-08-30T23:45:24.062Z,14.90
2018-08-30T23:47:52.703Z,14.90
2018-08-30T23:50:21.151Z,15.00
2018-08-30T23:52:49.569Z,15.00
2018-08-30T23:55:18.164Z,15.00
2018-08-30T23:57:57.840Z,15.00
